Terminal Aerodrome Forecast
Issued by NWS

Home | Current Version | Previous Version | Text Only | Print | Product List | Glossary On
Versions: 1 2 3 4 5 6 7 8 9 10 11 12 13 14 15
000
FTUS41 KPBZ 031127
TAFZZV
TAF
KZZV 031127Z 0312/0412 23005KT P6SM BKN050
      TEMPO 0312/0314 -RA OVC040
     FM031500 21010G16KT P6SM BKN040
     FM031800 22011G18KT 6SM -SHRA VCTS BKN050CB
     FM040200 27008KT P6SM BKN040
     FM040800 VRB03KT P6SM SCT040=

USA.gov is the U.S. government's official web portal to all federal, state and local government web resources and services.